sensor_id;sensor_type;location;lat;lon;timestamp;P1;durP1;ratioP1;P2;durP2;ratioP2
52898;SDS011;38763;53.096;6.062;2023-02-02T00:01:43;27.08;;;4.55;;
52898;SDS011;38763;53.096;6.062;2023-02-02T00:04:14;40.67;;;3.97;;
52898;SDS011;38763;53.096;6.062;2023-02-02T00:09:13;35.22;;;4.47;;
52898;SDS011;38763;53.096;6.062;2023-02-02T00:11:40;30.25;;;4.75;;
52898;SDS011;38763;53.096;6.062;2023-02-02T00:14:07;30.25;;;3.83;;
52898;SDS011;38763;53.096;6.062;2023-02-02T00:16:33;35.15;;;4.20;;
52898;SDS011;38763;53.096;6.062;2023-02-02T00:19:06;38.50;;;4.43;;
52898;SDS011;38763;53.096;6.062;2023-02-02T00:21:34;29.77;;;3.75;;
52898;SDS011;38763;53.096;6.062;2023-02-02T00:24:02;39.63;;;4.30;;
52898;SDS011;38763;53.096;6.062;2023-02-02T00:26:28;34.03;;;4.70;;
52898;SDS011;38763;53.096;6.062;2023-02-02T00:28:54;25.83;;;3.95;;
52898;SDS011;38763;53.096;6.062;2023-02-02T00:31:20;23.63;;;3.58;;
52898;SDS011;38763;53.096;6.062;2023-02-02T00:33:47;37.92;;;3.95;;
52898;SDS011;38763;53.096;6.062;2023-02-02T00:36:14;31.25;;;4.07;;
52898;SDS011;38763;53.096;6.062;2023-02-02T00:38:40;34.83;;;3.83;;
52898;SDS011;38763;53.096;6.062;2023-02-02T00:41:06;21.60;;;3.92;;
52898;SDS011;38763;53.096;6.062;2023-02-02T00:43:32;26.27;;;3.97;;
52898;SDS011;38763;53.096;6.062;2023-02-02T00:45:57;27.38;;;3.53;;
52898;SDS011;38763;53.096;6.062;2023-02-02T00:48:23;31.42;;;3.35;;
52898;SDS011;38763;53.096;6.062;2023-02-02T00:50:50;27.23;;;3.63;;
52898;SDS011;38763;53.096;6.062;2023-02-02T00:53:16;25.45;;;4.57;;
52898;SDS011;38763;53.096;6.062;2023-02-02T00:55:42;41.90;;;3.88;;
52898;SDS011;38763;53.096;6.062;2023-02-02T00:58:08;26.75;;;3.22;;
52898;SDS011;38763;53.096;6.062;2023-02-02T01:00:33;32.55;;;3.80;;
52898;SDS011;38763;53.096;6.062;2023-02-02T01:02:59;44.20;;;4.00;;
52898;SDS011;38763;53.096;6.062;2023-02-02T01:05:32;31.88;;;3.97;;
52898;SDS011;38763;53.096;6.062;2023-02-02T01:07:58;27.42;;;3.65;;
52898;SDS011;38763;53.096;6.062;2023-02-02T01:10:24;34.42;;;3.97;;
52898;SDS011;38763;53.096;6.062;2023-02-02T01:12:50;35.15;;;3.75;;
52898;SDS011;38763;53.096;6.062;2023-02-02T01:15:16;26.90;;;3.70;;
52898;SDS011;38763;53.096;6.062;2023-02-02T01:17:42;25.83;;;3.85;;
52898;SDS011;38763;53.096;6.062;2023-02-02T01:20:09;26.70;;;3.80;;
52898;SDS011;38763;53.096;6.062;2023-02-02T01:22:39;37.63;;;3.67;;
52898;SDS011;38763;53.096;6.062;2023-02-02T01:25:05;24.02;;;3.83;;
52898;SDS011;38763;53.096;6.062;2023-02-02T01:27:31;33.15;;;4.45;;
52898;SDS011;38763;53.096;6.062;2023-02-02T01:29:56;38.25;;;4.55;;
52898;SDS011;38763;53.096;6.062;2023-02-02T01:32:22;26.63;;;3.97;;
52898;SDS011;38763;53.096;6.062;2023-02-02T01:34:48;30.40;;;3.97;;
52898;SDS011;38763;53.096;6.062;2023-02-02T01:37:13;37.10;;;4.30;;
52898;SDS011;38763;53.096;6.062;2023-02-02T01:39:39;29.55;;;3.53;;
52898;SDS011;38763;53.096;6.062;2023-02-02T01:42:12;28.98;;;3.20;;
52898;SDS011;38763;53.096;6.062;2023-02-02T01:47:17;28.55;;;3.60;;
52898;SDS011;38763;53.096;6.062;2023-02-02T01:49:45;29.83;;;4.05;;
52898;SDS011;38763;53.096;6.062;2023-02-02T01:52:12;27.70;;;3.55;;
52898;SDS011;38763;53.096;6.062;2023-02-02T01:54:44;34.13;;;4.05;;
52898;SDS011;38763;53.096;6.062;2023-02-02T01:57:28;36.70;;;4.10;;
52898;SDS011;38763;53.096;6.062;2023-02-02T02:00:05;33.28;;;4.30;;
52898;SDS011;38763;53.096;6.062;2023-02-02T02:02:35;34.77;;;4.53;;
52898;SDS011;38763;53.096;6.062;2023-02-02T02:05:03;31.23;;;3.35;;
52898;SDS011;38763;53.096;6.062;2023-02-02T02:07:30;26.15;;;3.33;;
52898;SDS011;38763;53.096;6.062;2023-02-02T02:09:56;33.67;;;4.35;;
52898;SDS011;38763;53.096;6.062;2023-02-02T02:12:21;25.27;;;3.53;;
52898;SDS011;38763;53.096;6.062;2023-02-02T02:14:48;25.65;;;3.78;;
52898;SDS011;38763;53.096;6.062;2023-02-02T02:17:43;29.95;;;3.55;;
52898;SDS011;38763;53.096;6.062;2023-02-02T02:26:55;28.50;;;4.30;;
52898;SDS011;38763;53.096;6.062;2023-02-02T02:35:36;24.10;;;2.83;;
52898;SDS011;38763;53.096;6.062;2023-02-02T02:38:18;29.60;;;2.95;;
52898;SDS011;38763;53.096;6.062;2023-02-02T02:40:52;22.70;;;3.33;;
52898;SDS011;38763;53.096;6.062;2023-02-02T02:43:35;25.10;;;3.28;;
52898;SDS011;38763;53.096;6.062;2023-02-02T02:46:09;28.35;;;3.05;;
52898;SDS011;38763;53.096;6.062;2023-02-02T02:48:37;18.95;;;2.55;;
52898;SDS011;38763;53.096;6.062;2023-02-02T02:54:06;28.83;;;2.78;;
52898;SDS011;38763;53.096;6.062;2023-02-02T02:56:34;17.33;;;2.55;;
52898;SDS011;38763;53.096;6.062;2023-02-02T03:02:08;29.73;;;3.95;;
52898;SDS011;38763;53.096;6.062;2023-02-02T03:04:58;20.75;;;3.53;;
52898;SDS011;38763;53.096;6.062;2023-02-02T03:07:41;22.63;;;2.90;;
52898;SDS011;38763;53.096;6.062;2023-02-02T03:12:44;18.40;;;2.47;;
52898;SDS011;38763;53.096;6.062;2023-02-02T03:15:12;23.55;;;2.60;;
52898;SDS011;38763;53.096;6.062;2023-02-02T03:17:38;19.40;;;2.70;;
52898;SDS011;38763;53.096;6.062;2023-02-02T03:20:05;16.80;;;2.40;;
52898;SDS011;38763;53.096;6.062;2023-02-02T03:22:31;23.48;;;2.85;;
52898;SDS011;38763;53.096;6.062;2023-02-02T03:24:56;16.23;;;2.30;;
52898;SDS011;38763;53.096;6.062;2023-02-02T03:27:23;19.48;;;2.63;;
52898;SDS011;38763;53.096;6.062;2023-02-02T03:29:49;19.60;;;2.10;;
52898;SDS011;38763;53.096;6.062;2023-02-02T03:32:16;17.65;;;1.80;;
52898;SDS011;38763;53.096;6.062;2023-02-02T03:34:41;12.32;;;1.75;;
52898;SDS011;38763;53.096;6.062;2023-02-02T03:37:07;13.30;;;1.95;;
52898;SDS011;38763;53.096;6.062;2023-02-02T03:39:33;15.15;;;2.45;;
52898;SDS011;38763;53.096;6.062;2023-02-02T03:41:58;12.35;;;2.25;;
52898;SDS011;38763;53.096;6.062;2023-02-02T03:44:24;17.95;;;1.85;;
52898;SDS011;38763;53.096;6.062;2023-02-02T03:46:52;11.02;;;1.98;;
52898;SDS011;38763;53.096;6.062;2023-02-02T03:49:18;13.45;;;2.08;;
52898;SDS011;38763;53.096;6.062;2023-02-02T03:51:44;21.77;;;2.88;;
52898;SDS011;38763;53.096;6.062;2023-02-02T03:54:10;18.25;;;1.70;;
52898;SDS011;38763;53.096;6.062;2023-02-02T03:56:36;15.35;;;2.13;;
52898;SDS011;38763;53.096;6.062;2023-02-02T03:59:02;13.05;;;2.05;;
52898;SDS011;38763;53.096;6.062;2023-02-02T04:01:28;8.80;;;1.60;;
52898;SDS011;38763;53.096;6.062;2023-02-02T04:03:55;17.08;;;1.90;;
52898;SDS011;38763;53.096;6.062;2023-02-02T04:06:22;17.33;;;2.50;;
52898;SDS011;38763;53.096;6.062;2023-02-02T04:08:48;12.68;;;2.00;;
52898;SDS011;38763;53.096;6.062;2023-02-02T04:11:14;9.88;;;1.90;;
52898;SDS011;38763;53.096;6.062;2023-02-02T04:13:40;13.45;;;1.65;;
52898;SDS011;38763;53.096;6.062;2023-02-02T04:16:07;14.98;;;2.10;;
52898;SDS011;38763;53.096;6.062;2023-02-02T04:18:33;18.45;;;1.73;;
52898;SDS011;38763;53.096;6.062;2023-02-02T04:21:02;7.95;;;1.75;;
52898;SDS011;38763;53.096;6.062;2023-02-02T04:23:28;15.90;;;1.67;;
52898;SDS011;38763;53.096;6.062;2023-02-02T04:25:54;10.10;;;1.30;;
52898;SDS011;38763;53.096;6.062;2023-02-02T04:28:21;12.88;;;1.23;;
52898;SDS011;38763;53.096;6.062;2023-02-02T04:30:48;12.13;;;1.45;;
52898;SDS011;38763;53.096;6.062;2023-02-02T04:33:14;8.32;;;1.20;;
52898;SDS011;38763;53.096;6.062;2023-02-02T04:35:43;7.22;;;1.08;;
52898;SDS011;38763;53.096;6.062;2023-02-02T04:38:09;9.57;;;1.40;;
52898;SDS011;38763;53.096;6.062;2023-02-02T04:40:39;10.85;;;1.13;;
52898;SDS011;38763;53.096;6.062;2023-02-02T04:43:06;12.20;;;1.42;;
52898;SDS011;38763;53.096;6.062;2023-02-02T04:45:32;7.05;;;1.40;;
52898;SDS011;38763;53.096;6.062;2023-02-02T04:47:58;7.88;;;1.10;;
52898;SDS011;38763;53.096;6.062;2023-02-02T04:50:23;14.73;;;2.63;;
52898;SDS011;38763;53.096;6.062;2023-02-02T04:52:49;13.00;;;1.30;;
52898;SDS011;38763;53.096;6.062;2023-02-02T04:55:15;15.18;;;1.58;;
52898;SDS011;38763;53.096;6.062;2023-02-02T04:57:40;7.72;;;1.17;;
52898;SDS011;38763;53.096;6.062;2023-02-02T05:00:06;15.68;;;2.00;;
52898;SDS011;38763;53.096;6.062;2023-02-02T05:02:38;11.38;;;1.60;;
52898;SDS011;38763;53.096;6.062;2023-02-02T05:05:06;6.60;;;1.20;;
52898;SDS011;38763;53.096;6.062;2023-02-02T05:07:34;11.38;;;1.83;;
52898;SDS011;38763;53.096;6.062;2023-02-02T05:10:00;13.10;;;1.67;;
52898;SDS011;38763;53.096;6.062;2023-02-02T05:12:26;9.10;;;1.45;;
52898;SDS011;38763;53.096;6.062;2023-02-02T05:14:51;11.23;;;1.40;;
52898;SDS011;38763;53.096;6.062;2023-02-02T05:17:17;13.43;;;1.30;;
52898;SDS011;38763;53.096;6.062;2023-02-02T05:19:42;11.90;;;1.60;;
52898;SDS011;38763;53.096;6.062;2023-02-02T05:22:08;10.98;;;1.80;;
52898;SDS011;38763;53.096;6.062;2023-02-02T05:24:34;9.80;;;1.33;;
52898;SDS011;38763;53.096;6.062;2023-02-02T05:26:59;7.75;;;1.60;;
52898;SDS011;38763;53.096;6.062;2023-02-02T05:29:25;13.77;;;1.70;;
52898;SDS011;38763;53.096;6.062;2023-02-02T05:31:52;14.18;;;1.70;;
52898;SDS011;38763;53.096;6.062;2023-02-02T05:34:18;13.02;;;1.63;;
52898;SDS011;38763;53.096;6.062;2023-02-02T05:36:43;8.68;;;1.40;;
52898;SDS011;38763;53.096;6.062;2023-02-02T05:39:09;16.02;;;1.90;;
52898;SDS011;38763;53.096;6.062;2023-02-02T05:41:35;13.75;;;1.73;;
52898;SDS011;38763;53.096;6.062;2023-02-02T05:44:01;12.95;;;2.45;;
52898;SDS011;38763;53.096;6.062;2023-02-02T05:46:27;14.95;;;1.88;;
52898;SDS011;38763;53.096;6.062;2023-02-02T05:48:53;12.98;;;1.80;;
52898;SDS011;38763;53.096;6.062;2023-02-02T05:51:23;7.18;;;1.70;;
52898;SDS011;38763;53.096;6.062;2023-02-02T05:53:53;10.85;;;1.98;;
52898;SDS011;38763;53.096;6.062;2023-02-02T05:56:18;9.95;;;1.58;;
52898;SDS011;38763;53.096;6.062;2023-02-02T05:58:44;16.23;;;2.00;;
52898;SDS011;38763;53.096;6.062;2023-02-02T06:01:12;15.63;;;1.92;;
52898;SDS011;38763;53.096;6.062;2023-02-02T06:03:38;12.75;;;2.15;;
52898;SDS011;38763;53.096;6.062;2023-02-02T06:06:03;8.77;;;1.70;;
52898;SDS011;38763;53.096;6.062;2023-02-02T06:08:29;15.07;;;2.20;;
52898;SDS011;38763;53.096;6.062;2023-02-02T06:10:55;8.60;;;1.77;;
52898;SDS011;38763;53.096;6.062;2023-02-02T06:13:20;11.88;;;1.92;;
52898;SDS011;38763;53.096;6.062;2023-02-02T06:15:46;13.07;;;2.00;;
52898;SDS011;38763;53.096;6.062;2023-02-02T06:18:12;13.50;;;2.10;;
52898;SDS011;38763;53.096;6.062;2023-02-02T06:20:37;12.13;;;2.10;;
52898;SDS011;38763;53.096;6.062;2023-02-02T06:23:03;11.82;;;2.17;;
52898;SDS011;38763;53.096;6.062;2023-02-02T06:25:30;15.13;;;2.08;;
52898;SDS011;38763;53.096;6.062;2023-02-02T06:27:56;13.75;;;2.78;;
52898;SDS011;38763;53.096;6.062;2023-02-02T06:30:23;12.07;;;2.47;;
52898;SDS011;38763;53.096;6.062;2023-02-02T06:32:48;15.32;;;2.75;;
52898;SDS011;38763;53.096;6.062;2023-02-02T06:35:14;10.70;;;3.00;;
52898;SDS011;38763;53.096;6.062;2023-02-02T06:37:40;10.98;;;2.40;;
52898;SDS011;38763;53.096;6.062;2023-02-02T06:40:06;16.33;;;2.58;;
52898;SDS011;38763;53.096;6.062;2023-02-02T06:42:32;10.02;;;2.15;;
52898;SDS011;38763;53.096;6.062;2023-02-02T06:44:58;13.50;;;3.28;;
52898;SDS011;38763;53.096;6.062;2023-02-02T06:47:24;8.77;;;3.05;;
52898;SDS011;38763;53.096;6.062;2023-02-02T06:49:49;10.60;;;3.00;;
52898;SDS011;38763;53.096;6.062;2023-02-02T06:52:15;12.75;;;3.30;;
52898;SDS011;38763;53.096;6.062;2023-02-02T06:54:41;13.07;;;3.42;;
52898;SDS011;38763;53.096;6.062;2023-02-02T06:57:06;13.90;;;3.35;;
52898;SDS011;38763;53.096;6.062;2023-02-02T06:59:33;14.88;;;4.00;;
52898;SDS011;38763;53.096;6.062;2023-02-02T07:01:59;11.38;;;3.33;;
52898;SDS011;38763;53.096;6.062;2023-02-02T07:04:24;13.70;;;3.65;;
52898;SDS011;38763;53.096;6.062;2023-02-02T07:06:50;17.60;;;3.75;;
52898;SDS011;38763;53.096;6.062;2023-02-02T07:09:15;12.95;;;3.58;;
52898;SDS011;38763;53.096;6.062;2023-02-02T07:11:41;10.68;;;3.45;;
52898;SDS011;38763;53.096;6.062;2023-02-02T07:14:07;15.98;;;3.85;;
52898;SDS011;38763;53.096;6.062;2023-02-02T07:16:33;12.07;;;3.67;;
52898;SDS011;38763;53.096;6.062;2023-02-02T07:18:59;12.10;;;3.70;;
52898;SDS011;38763;53.096;6.062;2023-02-02T07:21:25;14.15;;;3.92;;
52898;SDS011;38763;53.096;6.062;2023-02-02T07:23:59;14.18;;;3.92;;
52898;SDS011;38763;53.096;6.062;2023-02-02T07:26:25;12.07;;;3.95;;
52898;SDS011;38763;53.096;6.062;2023-02-02T07:28:51;20.85;;;3.78;;
52898;SDS011;38763;53.096;6.062;2023-02-02T07:31:18;14.13;;;3.85;;
52898;SDS011;38763;53.096;6.062;2023-02-02T07:33:45;14.55;;;4.25;;
52898;SDS011;38763;53.096;6.062;2023-02-02T07:36:12;14.18;;;4.25;;
52898;SDS011;38763;53.096;6.062;2023-02-02T07:38:43;15.90;;;3.72;;
52898;SDS011;38763;53.096;6.062;2023-02-02T07:41:10;11.93;;;4.05;;
52898;SDS011;38763;53.096;6.062;2023-02-02T07:43:36;16.17;;;4.35;;
52898;SDS011;38763;53.096;6.062;2023-02-02T07:46:02;17.63;;;3.90;;
52898;SDS011;38763;53.096;6.062;2023-02-02T07:48:30;13.90;;;4.07;;
52898;SDS011;38763;53.096;6.062;2023-02-02T07:51:00;12.77;;;3.97;;
52898;SDS011;38763;53.096;6.062;2023-02-02T07:53:27;16.58;;;3.88;;
52898;SDS011;38763;53.096;6.062;2023-02-02T07:56:03;12.48;;;4.00;;
52898;SDS011;38763;53.096;6.062;2023-02-02T07:58:30;16.35;;;4.05;;
52898;SDS011;38763;53.096;6.062;2023-02-02T08:00:59;13.60;;;4.15;;
52898;SDS011;38763;53.096;6.062;2023-02-02T08:03:26;14.07;;;4.50;;
52898;SDS011;38763;53.096;6.062;2023-02-02T08:05:51;12.02;;;4.30;;
52898;SDS011;38763;53.096;6.062;2023-02-02T08:08:17;12.23;;;4.57;;
52898;SDS011;38763;53.096;6.062;2023-02-02T08:10:47;14.32;;;4.13;;
52898;SDS011;38763;53.096;6.062;2023-02-02T08:13:16;15.02;;;4.00;;
52898;SDS011;38763;53.096;6.062;2023-02-02T08:15:42;12.77;;;4.20;;
52898;SDS011;38763;53.096;6.062;2023-02-02T08:18:07;18.15;;;5.65;;
52898;SDS011;38763;53.096;6.062;2023-02-02T08:20:33;17.75;;;6.28;;
52898;SDS011;38763;53.096;6.062;2023-02-02T08:22:59;15.25;;;5.70;;
52898;SDS011;38763;53.096;6.062;2023-02-02T08:25:25;17.25;;;5.53;;
52898;SDS011;38763;53.096;6.062;2023-02-02T08:27:54;15.18;;;4.68;;
52898;SDS011;38763;53.096;6.062;2023-02-02T08:30:22;18.77;;;4.80;;
52898;SDS011;38763;53.096;6.062;2023-02-02T08:32:48;16.60;;;4.78;;
52898;SDS011;38763;53.096;6.062;2023-02-02T08:35:14;16.92;;;4.97;;
52898;SDS011;38763;53.096;6.062;2023-02-02T08:37:40;14.20;;;5.22;;
52898;SDS011;38763;53.096;6.062;2023-02-02T08:40:06;15.35;;;5.30;;
52898;SDS011;38763;53.096;6.062;2023-02-02T08:42:32;18.27;;;6.07;;
52898;SDS011;38763;53.096;6.062;2023-02-02T08:44:58;14.43;;;5.65;;
52898;SDS011;38763;53.096;6.062;2023-02-02T08:47:23;12.95;;;5.30;;
52898;SDS011;38763;53.096;6.062;2023-02-02T08:49:49;16.58;;;5.55;;
52898;SDS011;38763;53.096;6.062;2023-02-02T08:52:15;16.15;;;5.30;;
52898;SDS011;38763;53.096;6.062;2023-02-02T08:54:40;15.75;;;5.20;;
52898;SDS011;38763;53.096;6.062;2023-02-02T08:57:06;17.75;;;5.75;;
52898;SDS011;38763;53.096;6.062;2023-02-02T08:59:32;14.52;;;4.97;;
52898;SDS011;38763;53.096;6.062;2023-02-02T09:01:57;15.68;;;5.00;;
52898;SDS011;38763;53.096;6.062;2023-02-02T09:04:23;13.90;;;5.30;;
52898;SDS011;38763;53.096;6.062;2023-02-02T09:06:48;16.00;;;5.55;;
52898;SDS011;38763;53.096;6.062;2023-02-02T09:09:15;17.55;;;5.30;;
52898;SDS011;38763;53.096;6.062;2023-02-02T09:11:42;16.38;;;5.00;;
52898;SDS011;38763;53.096;6.062;2023-02-02T09:14:09;14.25;;;5.03;;
52898;SDS011;38763;53.096;6.062;2023-02-02T09:16:36;13.90;;;5.25;;
52898;SDS011;38763;53.096;6.062;2023-02-02T09:19:02;12.40;;;4.55;;
52898;SDS011;38763;53.096;6.062;2023-02-02T09:21:28;19.58;;;5.50;;
52898;SDS011;38763;53.096;6.062;2023-02-02T09:23:53;14.90;;;5.18;;
52898;SDS011;38763;53.096;6.062;2023-02-02T09:28:48;14.20;;;5.50;;
52898;SDS011;38763;53.096;6.062;2023-02-02T09:31:15;15.52;;;5.28;;
52898;SDS011;38763;53.096;6.062;2023-02-02T09:33:41;18.80;;;5.93;;
52898;SDS011;38763;53.096;6.062;2023-02-02T09:36:09;15.93;;;5.50;;
52898;SDS011;38763;53.096;6.062;2023-02-02T09:39:02;14.73;;;5.15;;
52898;SDS011;38763;53.096;6.062;2023-02-02T09:47:03;12.45;;;4.93;;
52898;SDS011;38763;53.096;6.062;2023-02-02T09:52:45;14.40;;;5.13;;
52898;SDS011;38763;53.096;6.062;2023-02-02T09:55:42;15.15;;;5.13;;
52898;SDS011;38763;53.096;6.062;2023-02-02T09:58:20;13.02;;;4.75;;
52898;SDS011;38763;53.096;6.062;2023-02-02T10:00:59;15.30;;;5.22;;
52898;SDS011;38763;53.096;6.062;2023-02-02T10:08:35;14.27;;;4.95;;
52898;SDS011;38763;53.096;6.062;2023-02-02T10:11:14;12.07;;;4.93;;
52898;SDS011;38763;53.096;6.062;2023-02-02T10:13:51;15.40;;;5.47;;
52898;SDS011;38763;53.096;6.062;2023-02-02T10:16:21;15.10;;;4.68;;
52898;SDS011;38763;53.096;6.062;2023-02-02T10:18:50;13.43;;;5.13;;
52898;SDS011;38763;53.096;6.062;2023-02-02T10:21:50;13.70;;;4.55;;
52898;SDS011;38763;53.096;6.062;2023-02-02T10:24:25;9.60;;;4.03;;
52898;SDS011;38763;53.096;6.062;2023-02-02T10:26:54;10.50;;;4.18;;
52898;SDS011;38763;53.096;6.062;2023-02-02T10:46:10;11.63;;;4.70;;
52898;SDS011;38763;53.096;6.062;2023-02-02T10:48:43;10.88;;;3.70;;
52898;SDS011;38763;53.096;6.062;2023-02-02T10:53:48;10.88;;;3.05;;
52898;SDS011;38763;53.096;6.062;2023-02-02T10:56:17;9.57;;;3.60;;
52898;SDS011;38763;53.096;6.062;2023-02-02T10:59:03;14.77;;;4.32;;
52898;SDS011;38763;53.096;6.062;2023-02-02T11:01:33;11.30;;;3.35;;
52898;SDS011;38763;53.096;6.062;2023-02-02T11:03:59;8.98;;;3.08;;
52898;SDS011;38763;53.096;6.062;2023-02-02T11:06:43;6.90;;;2.97;;
52898;SDS011;38763;53.096;6.062;2023-02-02T11:09:17;10.07;;;2.97;;
52898;SDS011;38763;53.096;6.062;2023-02-02T11:11:45;8.82;;;3.03;;
52898;SDS011;38763;53.096;6.062;2023-02-02T11:17:24;7.78;;;3.00;;
52898;SDS011;38763;53.096;6.062;2023-02-02T11:19:50;10.15;;;2.55;;
52898;SDS011;38763;53.096;6.062;2023-02-02T11:22:30;8.25;;;2.58;;
52898;SDS011;38763;53.096;6.062;2023-02-02T11:25:09;9.82;;;1.80;;
52898;SDS011;38763;53.096;6.062;2023-02-02T11:27:53;8.70;;;2.00;;
52898;SDS011;38763;53.096;6.062;2023-02-02T11:32:51;5.25;;;1.70;;
52898;SDS011;38763;53.096;6.062;2023-02-02T11:35:18;5.00;;;2.00;;
52898;SDS011;38763;53.096;6.062;2023-02-02T11:40:29;7.82;;;2.40;;
52898;SDS011;38763;53.096;6.062;2023-02-02T11:43:24;5.35;;;1.70;;
52898;SDS011;38763;53.096;6.062;2023-02-02T11:46:00;5.72;;;1.90;;
52898;SDS011;38763;53.096;6.062;2023-02-02T11:48:36;6.32;;;1.60;;
52898;SDS011;38763;53.096;6.062;2023-02-02T11:51:04;7.32;;;1.58;;
52898;SDS011;38763;53.096;6.062;2023-02-02T11:53:50;9.57;;;1.83;;
52898;SDS011;38763;53.096;6.062;2023-02-02T11:56:47;6.53;;;2.05;;
52898;SDS011;38763;53.096;6.062;2023-02-02T11:59:29;9.30;;;2.33;;
52898;SDS011;38763;53.096;6.062;2023-02-02T12:05:13;11.75;;;2.20;;
52898;SDS011;38763;53.096;6.062;2023-02-02T12:07:47;7.30;;;2.20;;
52898;SDS011;38763;53.096;6.062;2023-02-02T12:10:17;8.82;;;2.40;;
52898;SDS011;38763;53.096;6.062;2023-02-02T12:12:57;9.40;;;2.28;;
52898;SDS011;38763;53.096;6.062;2023-02-02T12:21:09;8.00;;;2.60;;
52898;SDS011;38763;53.096;6.062;2023-02-02T12:26:56;6.57;;;2.92;;
52898;SDS011;38763;53.096;6.062;2023-02-02T12:29:33;9.45;;;2.30;;
52898;SDS011;38763;53.096;6.062;2023-02-02T12:41:37;6.97;;;2.88;;
52898;SDS011;38763;53.096;6.062;2023-02-02T12:46:47;6.57;;;2.45;;
52898;SDS011;38763;53.096;6.062;2023-02-02T12:49:25;6.68;;;2.65;;
52898;SDS011;38763;53.096;6.062;2023-02-02T12:52:07;9.30;;;3.40;;
52898;SDS011;38763;53.096;6.062;2023-02-02T12:54:59;9.25;;;3.88;;
52898;SDS011;38763;53.096;6.062;2023-02-02T13:00:05;18.55;;;7.20;;
52898;SDS011;38763;53.096;6.062;2023-02-02T13:08:11;32.20;;;17.63;;
52898;SDS011;38763;53.096;6.062;2023-02-02T13:13:15;14.40;;;6.07;;
52898;SDS011;38763;53.096;6.062;2023-02-02T13:15:58;22.08;;;7.10;;
52898;SDS011;38763;53.096;6.062;2023-02-02T13:21:37;61.83;;;37.72;;
52898;SDS011;38763;53.096;6.062;2023-02-02T13:24:05;30.85;;;15.05;;
52898;SDS011;38763;53.096;6.062;2023-02-02T13:26:39;37.38;;;9.90;;
52898;SDS011;38763;53.096;6.062;2023-02-02T13:40:22;47.15;;;11.52;;
52898;SDS011;38763;53.096;6.062;2023-02-02T13:42:57;52.60;;;13.13;;
52898;SDS011;38763;53.096;6.062;2023-02-02T13:53:40;45.17;;;18.60;;
52898;SDS011;38763;53.096;6.062;2023-02-02T13:56:38;60.10;;;13.05;;
52898;SDS011;38763;53.096;6.062;2023-02-02T14:02:19;48.72;;;12.55;;
52898;SDS011;38763;53.096;6.062;2023-02-02T14:05:04;54.08;;;14.05;;
52898;SDS011;38763;53.096;6.062;2023-02-02T14:07:39;60.88;;;19.48;;
52898;SDS011;38763;53.096;6.062;2023-02-02T14:10:24;93.30;;;40.95;;
52898;SDS011;38763;53.096;6.062;2023-02-02T14:12:52;65.75;;;27.15;;
52898;SDS011;38763;53.096;6.062;2023-02-02T14:15:38;83.15;;;37.58;;
52898;SDS011;38763;53.096;6.062;2023-02-02T14:18:07;43.35;;;11.35;;
52898;SDS011;38763;53.096;6.062;2023-02-02T14:20:40;94.95;;;33.28;;
52898;SDS011;38763;53.096;6.062;2023-02-02T14:23:48;42.63;;;12.02;;
52898;SDS011;38763;53.096;6.062;2023-02-02T14:26:17;36.38;;;8.32;;
52898;SDS011;38763;53.096;6.062;2023-02-02T14:28:46;137.65;;;39.95;;
52898;SDS011;38763;53.096;6.062;2023-02-02T14:34:25;55.67;;;16.52;;
52898;SDS011;38763;53.096;6.062;2023-02-02T14:45:31;35.78;;;7.05;;
52898;SDS011;38763;53.096;6.062;2023-02-02T14:55:27;34.10;;;7.00;;
52898;SDS011;38763;53.096;6.062;2023-02-02T14:57:57;37.38;;;7.95;;
52898;SDS011;38763;53.096;6.062;2023-02-02T15:00:35;38.77;;;9.13;;
52898;SDS011;38763;53.096;6.062;2023-02-02T15:06:11;36.28;;;6.90;;
52898;SDS011;38763;53.096;6.062;2023-02-02T15:22:31;31.88;;;7.47;;
52898;SDS011;38763;53.096;6.062;2023-02-02T15:28:09;40.17;;;8.18;;
52898;SDS011;38763;53.096;6.062;2023-02-02T15:33:27;38.75;;;11.68;;
52898;SDS011;38763;53.096;6.062;2023-02-02T15:35:59;41.53;;;14.37;;
52898;SDS011;38763;53.096;6.062;2023-02-02T15:38:31;33.70;;;7.93;;
52898;SDS011;38763;53.096;6.062;2023-02-02T15:41:05;24.17;;;7.93;;
52898;SDS011;38763;53.096;6.062;2023-02-02T15:43:40;29.00;;;13.90;;
52898;SDS011;38763;53.096;6.062;2023-02-02T15:46:09;32.70;;;9.52;;
52898;SDS011;38763;53.096;6.062;2023-02-02T15:48:37;33.75;;;8.68;;
52898;SDS011;38763;53.096;6.062;2023-02-02T15:51:04;27.90;;;8.32;;
52898;SDS011;38763;53.096;6.062;2023-02-02T15:58:47;24.98;;;8.60;;
52898;SDS011;38763;53.096;6.062;2023-02-02T16:01:18;29.60;;;7.88;;
52898;SDS011;38763;53.096;6.062;2023-02-02T16:06:29;33.70;;;8.32;;
52898;SDS011;38763;53.096;6.062;2023-02-02T16:08:55;33.17;;;7.78;;
52898;SDS011;38763;53.096;6.062;2023-02-02T16:11:21;29.65;;;8.25;;
52898;SDS011;38763;53.096;6.062;2023-02-02T16:13:55;28.95;;;7.72;;
52898;SDS011;38763;53.096;6.062;2023-02-02T16:16:23;35.17;;;8.60;;
52898;SDS011;38763;53.096;6.062;2023-02-02T16:19:00;35.53;;;8.30;;
52898;SDS011;38763;53.096;6.062;2023-02-02T16:21:32;35.17;;;7.88;;
52898;SDS011;38763;53.096;6.062;2023-02-02T16:24:02;28.45;;;7.38;;
52898;SDS011;38763;53.096;6.062;2023-02-02T16:26:29;39.90;;;8.57;;
52898;SDS011;38763;53.096;6.062;2023-02-02T16:28:56;30.60;;;8.02;;
52898;SDS011;38763;53.096;6.062;2023-02-02T16:31:22;33.42;;;9.43;;
52898;SDS011;38763;53.096;6.062;2023-02-02T16:33:49;33.95;;;7.40;;
52898;SDS011;38763;53.096;6.062;2023-02-02T16:36:22;30.75;;;7.22;;
52898;SDS011;38763;53.096;6.062;2023-02-02T16:38:50;26.80;;;7.85;;
52898;SDS011;38763;53.096;6.062;2023-02-02T16:41:28;29.23;;;9.27;;
52898;SDS011;38763;53.096;6.062;2023-02-02T16:47:05;37.13;;;8.32;;
52898;SDS011;38763;53.096;6.062;2023-02-02T16:49:32;31.75;;;7.07;;
52898;SDS011;38763;53.096;6.062;2023-02-02T16:52:12;30.42;;;7.32;;
52898;SDS011;38763;53.096;6.062;2023-02-02T16:54:40;26.23;;;7.30;;
52898;SDS011;38763;53.096;6.062;2023-02-02T16:57:17;28.95;;;7.18;;
52898;SDS011;38763;53.096;6.062;2023-02-02T16:59:51;34.20;;;7.97;;
52898;SDS011;38763;53.096;6.062;2023-02-02T17:07:30;28.52;;;7.50;;
52898;SDS011;38763;53.096;6.062;2023-02-02T17:10:10;27.20;;;6.70;;
52898;SDS011;38763;53.096;6.062;2023-02-02T17:12:42;27.42;;;6.82;;
52898;SDS011;38763;53.096;6.062;2023-02-02T17:17:41;44.22;;;8.38;;
52898;SDS011;38763;53.096;6.062;2023-02-02T17:20:07;29.58;;;7.50;;
52898;SDS011;38763;53.096;6.062;2023-02-02T17:22:35;32.70;;;7.40;;
52898;SDS011;38763;53.096;6.062;2023-02-02T17:25:04;25.13;;;6.80;;
52898;SDS011;38763;53.096;6.062;2023-02-02T17:27:30;31.83;;;8.20;;
52898;SDS011;38763;53.096;6.062;2023-02-02T17:29:59;28.05;;;7.13;;
52898;SDS011;38763;53.096;6.062;2023-02-02T17:32:26;27.98;;;8.20;;
52898;SDS011;38763;53.096;6.062;2023-02-02T17:34:51;22.70;;;6.50;;
52898;SDS011;38763;53.096;6.062;2023-02-02T17:37:17;26.52;;;6.35;;
52898;SDS011;38763;53.096;6.062;2023-02-02T17:39:43;32.53;;;6.82;;
52898;SDS011;38763;53.096;6.062;2023-02-02T17:42:15;28.58;;;6.80;;
52898;SDS011;38763;53.096;6.062;2023-02-02T17:44:50;28.42;;;7.00;;
52898;SDS011;38763;53.096;6.062;2023-02-02T17:47:15;31.13;;;6.28;;
52898;SDS011;38763;53.096;6.062;2023-02-02T17:49:41;27.75;;;5.78;;
52898;SDS011;38763;53.096;6.062;2023-02-02T17:52:08;22.23;;;6.05;;
52898;SDS011;38763;53.096;6.062;2023-02-02T17:54:34;25.98;;;5.63;;
52898;SDS011;38763;53.096;6.062;2023-02-02T17:57:00;22.67;;;5.93;;
52898;SDS011;38763;53.096;6.062;2023-02-02T17:59:25;25.08;;;5.97;;
52898;SDS011;38763;53.096;6.062;2023-02-02T18:01:51;60.70;;;16.38;;